sensor_id;sensor_type;location;lat;lon;timestamp;P1;durP1;ratioP1;P2;durP2;ratioP2
16775;SDS011;8505;49.456;8.164;2023-10-09T00:02:08;1.00;;;0.60;;
16775;SDS011;8505;49.456;8.164;2023-10-09T00:04:37;1.40;;;1.30;;
16775;SDS011;8505;49.456;8.164;2023-10-09T00:07:10;0.80;;;0.50;;
16775;SDS011;8505;49.456;8.164;2023-10-09T00:09:38;0.10;;;0.10;;
16775;SDS011;8505;49.456;8.164;2023-10-09T00:12:15;0.90;;;0.30;;
16775;SDS011;8505;49.456;8.164;2023-10-09T00:14:49;0.10;;;0.10;;
16775;SDS011;8505;49.456;8.164;2023-10-09T00:17:23;0.00;;;0.00;;
16775;SDS011;8505;49.456;8.164;2023-10-09T00:19:57;3.40;;;0.60;;
16775;SDS011;8505;49.456;8.164;2023-10-09T00:22:35;2.10;;;1.80;;
16775;SDS011;8505;49.456;8.164;2023-10-09T00:25:09;0.40;;;0.30;;
16775;SDS011;8505;49.456;8.164;2023-10-09T00:27:38;0.05;;;0.05;;
16775;SDS011;8505;49.456;8.164;2023-10-09T00:30:09;0.20;;;0.17;;
16775;SDS011;8505;49.456;8.164;2023-10-09T00:32:42;0.50;;;0.40;;
16775;SDS011;8505;49.456;8.164;2023-10-09T00:35:18;0.30;;;0.20;;
16775;SDS011;8505;49.456;8.164;2023-10-09T00:38:09;0.50;;;0.50;;
16775;SDS011;8505;49.456;8.164;2023-10-09T00:40:59;3.50;;;0.93;;
16775;SDS011;8505;49.456;8.164;2023-10-09T00:43:37;0.95;;;0.60;;
16775;SDS011;8505;49.456;8.164;2023-10-09T00:46:09;0.38;;;0.32;;
16775;SDS011;8505;49.456;8.164;2023-10-09T00:48:52;1.80;;;0.68;;
16775;SDS011;8505;49.456;8.164;2023-10-09T00:51:22;3.60;;;0.90;;
16775;SDS011;8505;49.456;8.164;2023-10-09T00:53:55;0.50;;;0.50;;
16775;SDS011;8505;49.456;8.164;2023-10-09T00:56:26;0.10;;;0.10;;
16775;SDS011;8505;49.456;8.164;2023-10-09T00:59:05;0.30;;;0.30;;
16775;SDS011;8505;49.456;8.164;2023-10-09T01:01:40;0.00;;;0.00;;
16775;SDS011;8505;49.456;8.164;2023-10-09T01:04:15;0.00;;;0.00;;
16775;SDS011;8505;49.456;8.164;2023-10-09T01:06:45;0.00;;;0.00;;
16775;SDS011;8505;49.456;8.164;2023-10-09T01:09:21;1.25;;;1.15;;
16775;SDS011;8505;49.456;8.164;2023-10-09T01:11:49;0.60;;;0.60;;
16775;SDS011;8505;49.456;8.164;2023-10-09T01:14:30;0.63;;;0.30;;
16775;SDS011;8505;49.456;8.164;2023-10-09T01:17:02;5.32;;;1.63;;
16775;SDS011;8505;49.456;8.164;2023-10-09T01:19:34;0.20;;;0.20;;
16775;SDS011;8505;49.456;8.164;2023-10-09T01:22:01;0.00;;;0.00;;
16775;SDS011;8505;49.456;8.164;2023-10-09T01:24:32;1.20;;;0.93;;
16775;SDS011;8505;49.456;8.164;2023-10-09T01:27:05;0.60;;;0.60;;
16775;SDS011;8505;49.456;8.164;2023-10-09T01:29:39;0.45;;;0.40;;
16775;SDS011;8505;49.456;8.164;2023-10-09T01:32:08;0.50;;;0.50;;
16775;SDS011;8505;49.456;8.164;2023-10-09T01:34:43;3.03;;;0.68;;
16775;SDS011;8505;49.456;8.164;2023-10-09T01:37:15;1.00;;;0.65;;
16775;SDS011;8505;49.456;8.164;2023-10-09T01:39:47;0.85;;;0.17;;
16775;SDS011;8505;49.456;8.164;2023-10-09T01:42:15;0.43;;;0.43;;
16775;SDS011;8505;49.456;8.164;2023-10-09T01:45:00;0.30;;;0.30;;
16775;SDS011;8505;49.456;8.164;2023-10-09T01:47:37;2.15;;;0.82;;
16775;SDS011;8505;49.456;8.164;2023-10-09T01:50:06;0.10;;;0.10;;
16775;SDS011;8505;49.456;8.164;2023-10-09T01:52:37;0.10;;;0.10;;
16775;SDS011;8505;49.456;8.164;2023-10-09T01:55:07;0.22;;;0.22;;
16775;SDS011;8505;49.456;8.164;2023-10-09T01:57:54;1.60;;;0.60;;
16775;SDS011;8505;49.456;8.164;2023-10-09T02:00:25;0.60;;;0.60;;
16775;SDS011;8505;49.456;8.164;2023-10-09T02:02:55;0.10;;;0.10;;
16775;SDS011;8505;49.456;8.164;2023-10-09T02:05:29;0.80;;;0.50;;
16775;SDS011;8505;49.456;8.164;2023-10-09T02:07:59;0.00;;;0.00;;
16775;SDS011;8505;49.456;8.164;2023-10-09T02:10:31;0.10;;;0.10;;
16775;SDS011;8505;49.456;8.164;2023-10-09T02:13:00;0.00;;;0.00;;
16775;SDS011;8505;49.456;8.164;2023-10-09T02:15:33;0.00;;;0.00;;
16775;SDS011;8505;49.456;8.164;2023-10-09T02:18:18;0.05;;;0.05;;
16775;SDS011;8505;49.456;8.164;2023-10-09T02:21:07;0.75;;;0.75;;
16775;SDS011;8505;49.456;8.164;2023-10-09T02:23:41;0.20;;;0.20;;
16775;SDS011;8505;49.456;8.164;2023-10-09T02:26:14;2.50;;;0.63;;
16775;SDS011;8505;49.456;8.164;2023-10-09T02:28:46;0.00;;;0.00;;
16775;SDS011;8505;49.456;8.164;2023-10-09T02:31:19;0.38;;;0.38;;
16775;SDS011;8505;49.456;8.164;2023-10-09T02:33:49;0.00;;;0.00;;
16775;SDS011;8505;49.456;8.164;2023-10-09T02:36:19;0.60;;;0.60;;
16775;SDS011;8505;49.456;8.164;2023-10-09T02:38:47;1.10;;;0.45;;
16775;SDS011;8505;49.456;8.164;2023-10-09T02:41:20;0.20;;;0.20;;
16775;SDS011;8505;49.456;8.164;2023-10-09T02:43:48;0.40;;;0.40;;
16775;SDS011;8505;49.456;8.164;2023-10-09T02:46:21;3.28;;;1.65;;
16775;SDS011;8505;49.456;8.164;2023-10-09T02:48:56;8.30;;;1.17;;
16775;SDS011;8505;49.456;8.164;2023-10-09T02:51:25;0.50;;;0.50;;
16775;SDS011;8505;49.456;8.164;2023-10-09T02:54:00;0.10;;;0.10;;
16775;SDS011;8505;49.456;8.164;2023-10-09T02:56:46;0.10;;;0.10;;
16775;SDS011;8505;49.456;8.164;2023-10-09T02:59:21;0.20;;;0.20;;
16775;SDS011;8505;49.456;8.164;2023-10-09T03:01:49;0.10;;;0.10;;
16775;SDS011;8505;49.456;8.164;2023-10-09T03:04:19;0.35;;;0.20;;
16775;SDS011;8505;49.456;8.164;2023-10-09T03:06:50;0.00;;;0.00;;
16775;SDS011;8505;49.456;8.164;2023-10-09T03:09:18;0.20;;;0.20;;
16775;SDS011;8505;49.456;8.164;2023-10-09T03:11:55;0.80;;;0.80;;
16775;SDS011;8505;49.456;8.164;2023-10-09T03:14:29;2.10;;;1.10;;
16775;SDS011;8505;49.456;8.164;2023-10-09T03:16:58;3.20;;;1.20;;
16775;SDS011;8505;49.456;8.164;2023-10-09T03:19:26;3.60;;;0.50;;
16775;SDS011;8505;49.456;8.164;2023-10-09T03:21:55;0.10;;;0.10;;
16775;SDS011;8505;49.456;8.164;2023-10-09T03:24:24;0.00;;;0.00;;
16775;SDS011;8505;49.456;8.164;2023-10-09T03:26:55;0.10;;;0.10;;
16775;SDS011;8505;49.456;8.164;2023-10-09T03:29:23;0.80;;;0.80;;
16775;SDS011;8505;49.456;8.164;2023-10-09T03:31:51;0.00;;;0.00;;
16775;SDS011;8505;49.456;8.164;2023-10-09T03:34:19;0.10;;;0.10;;
16775;SDS011;8505;49.456;8.164;2023-10-09T03:36:50;0.15;;;0.15;;
16775;SDS011;8505;49.456;8.164;2023-10-09T03:39:26;5.00;;;0.60;;
16775;SDS011;8505;49.456;8.164;2023-10-09T03:42:01;0.28;;;0.22;;
16775;SDS011;8505;49.456;8.164;2023-10-09T03:44:31;1.50;;;1.10;;
16775;SDS011;8505;49.456;8.164;2023-10-09T03:47:00;0.40;;;0.40;;
16775;SDS011;8505;49.456;8.164;2023-10-09T03:49:28;7.93;;;2.03;;
16775;SDS011;8505;49.456;8.164;2023-10-09T03:51:58;1.47;;;0.67;;
16775;SDS011;8505;49.456;8.164;2023-10-09T03:54:28;7.20;;;0.80;;
16775;SDS011;8505;49.456;8.164;2023-10-09T03:56:56;0.80;;;0.40;;
16775;SDS011;8505;49.456;8.164;2023-10-09T03:59:27;0.50;;;0.40;;
16775;SDS011;8505;49.456;8.164;2023-10-09T04:01:58;0.65;;;0.35;;
16775;SDS011;8505;49.456;8.164;2023-10-09T04:04:27;2.85;;;1.05;;
16775;SDS011;8505;49.456;8.164;2023-10-09T04:06:57;0.57;;;0.52;;
16775;SDS011;8505;49.456;8.164;2023-10-09T04:09:25;1.60;;;0.80;;
16775;SDS011;8505;49.456;8.164;2023-10-09T04:12:05;0.73;;;0.47;;
16775;SDS011;8505;49.456;8.164;2023-10-09T04:14:53;2.85;;;0.65;;
16775;SDS011;8505;49.456;8.164;2023-10-09T04:17:27;1.35;;;0.63;;
16775;SDS011;8505;49.456;8.164;2023-10-09T04:20:02;2.00;;;0.80;;
16775;SDS011;8505;49.456;8.164;2023-10-09T04:22:48;5.70;;;0.82;;
16775;SDS011;8505;49.456;8.164;2023-10-09T04:25:26;2.33;;;1.08;;
16775;SDS011;8505;49.456;8.164;2023-10-09T04:27:56;1.50;;;0.60;;
16775;SDS011;8505;49.456;8.164;2023-10-09T04:30:37;1.10;;;0.68;;
16775;SDS011;8505;49.456;8.164;2023-10-09T04:33:09;0.20;;;0.20;;
16775;SDS011;8505;49.456;8.164;2023-10-09T04:35:54;1.67;;;0.50;;
16775;SDS011;8505;49.456;8.164;2023-10-09T04:38:36;4.70;;;0.93;;
16775;SDS011;8505;49.456;8.164;2023-10-09T04:41:05;17.67;;;1.38;;
16775;SDS011;8505;49.456;8.164;2023-10-09T04:43:34;1.30;;;0.50;;
16775;SDS011;8505;49.456;8.164;2023-10-09T04:46:02;0.60;;;0.60;;
16775;SDS011;8505;49.456;8.164;2023-10-09T04:48:38;2.13;;;0.55;;
16775;SDS011;8505;49.456;8.164;2023-10-09T04:51:14;1.50;;;0.40;;
16775;SDS011;8505;49.456;8.164;2023-10-09T04:53:47;3.10;;;0.60;;
16775;SDS011;8505;49.456;8.164;2023-10-09T04:56:21;0.70;;;0.50;;
16775;SDS011;8505;49.456;8.164;2023-10-09T04:58:50;0.17;;;0.17;;
16775;SDS011;8505;49.456;8.164;2023-10-09T05:01:31;0.50;;;0.45;;
16775;SDS011;8505;49.456;8.164;2023-10-09T05:04:10;0.03;;;0.03;;
16775;SDS011;8505;49.456;8.164;2023-10-09T05:06:54;1.25;;;0.85;;
16775;SDS011;8505;49.456;8.164;2023-10-09T05:09:22;6.72;;;0.85;;
16775;SDS011;8505;49.456;8.164;2023-10-09T05:11:50;0.00;;;0.00;;
16775;SDS011;8505;49.456;8.164;2023-10-09T05:14:35;0.00;;;0.00;;
16775;SDS011;8505;49.456;8.164;2023-10-09T05:17:07;0.60;;;0.20;;
16775;SDS011;8505;49.456;8.164;2023-10-09T05:19:42;0.13;;;0.13;;
16775;SDS011;8505;49.456;8.164;2023-10-09T05:22:21;0.47;;;0.30;;
16775;SDS011;8505;49.456;8.164;2023-10-09T05:25:04;0.00;;;0.00;;
16775;SDS011;8505;49.456;8.164;2023-10-09T05:27:42;0.08;;;0.08;;
16775;SDS011;8505;49.456;8.164;2023-10-09T05:30:17;0.35;;;0.35;;
16775;SDS011;8505;49.456;8.164;2023-10-09T05:32:55;0.10;;;0.10;;
16775;SDS011;8505;49.456;8.164;2023-10-09T05:35:46;0.20;;;0.20;;
16775;SDS011;8505;49.456;8.164;2023-10-09T05:38:32;11.43;;;1.30;;
16775;SDS011;8505;49.456;8.164;2023-10-09T05:41:02;0.20;;;0.20;;
16775;SDS011;8505;49.456;8.164;2023-10-09T05:43:53;0.10;;;0.10;;
16775;SDS011;8505;49.456;8.164;2023-10-09T05:46:38;0.00;;;0.00;;
16775;SDS011;8505;49.456;8.164;2023-10-09T05:49:20;0.20;;;0.20;;
16775;SDS011;8505;49.456;8.164;2023-10-09T05:51:50;0.00;;;0.00;;
16775;SDS011;8505;49.456;8.164;2023-10-09T05:54:40;6.80;;;1.90;;
16775;SDS011;8505;49.456;8.164;2023-10-09T05:57:25;0.00;;;0.00;;
16775;SDS011;8505;49.456;8.164;2023-10-09T06:00:10;0.70;;;0.60;;
16775;SDS011;8505;49.456;8.164;2023-10-09T06:03:02;0.40;;;0.25;;
16775;SDS011;8505;49.456;8.164;2023-10-09T06:05:48;0.70;;;0.40;;
16775;SDS011;8505;49.456;8.164;2023-10-09T06:08:30;4.80;;;2.90;;
16775;SDS011;8505;49.456;8.164;2023-10-09T06:11:18;2.00;;;0.80;;
16775;SDS011;8505;49.456;8.164;2023-10-09T06:14:04;2.97;;;0.60;;
16775;SDS011;8505;49.456;8.164;2023-10-09T06:16:40;2.55;;;0.25;;
16775;SDS011;8505;49.456;8.164;2023-10-09T06:19:08;2.15;;;1.08;;
16775;SDS011;8505;49.456;8.164;2023-10-09T06:21:55;2.40;;;0.70;;
16775;SDS011;8505;49.456;8.164;2023-10-09T06:24:56;1.20;;;0.50;;
16775;SDS011;8505;49.456;8.164;2023-10-09T06:27:34;1.70;;;0.80;;
16775;SDS011;8505;49.456;8.164;2023-10-09T06:30:16;2.22;;;1.00;;
16775;SDS011;8505;49.456;8.164;2023-10-09T06:32:53;1.55;;;0.82;;
16775;SDS011;8505;49.456;8.164;2023-10-09T06:35:46;4.35;;;1.20;;
16775;SDS011;8505;49.456;8.164;2023-10-09T06:38:22;1.77;;;0.57;;
16775;SDS011;8505;49.456;8.164;2023-10-09T06:40:50;3.95;;;1.45;;
16775;SDS011;8505;49.456;8.164;2023-10-09T06:43:35;0.30;;;0.22;;
16775;SDS011;8505;49.456;8.164;2023-10-09T06:46:15;0.43;;;0.43;;
16775;SDS011;8505;49.456;8.164;2023-10-09T06:49:01;0.10;;;0.10;;
16775;SDS011;8505;49.456;8.164;2023-10-09T06:51:48;4.13;;;0.90;;
16775;SDS011;8505;49.456;8.164;2023-10-09T06:54:23;0.10;;;0.10;;
16775;SDS011;8505;49.456;8.164;2023-10-09T06:56:53;0.10;;;0.10;;
16775;SDS011;8505;49.456;8.164;2023-10-09T06:59:38;2.30;;;0.60;;
16775;SDS011;8505;49.456;8.164;2023-10-09T07:02:25;0.00;;;0.00;;
16775;SDS011;8505;49.456;8.164;2023-10-09T07:04:53;3.40;;;0.85;;
16775;SDS011;8505;49.456;8.164;2023-10-09T07:07:21;2.17;;;1.60;;
16775;SDS011;8505;49.456;8.164;2023-10-09T07:09:53;0.70;;;0.70;;
16775;SDS011;8505;49.456;8.164;2023-10-09T07:12:39;4.30;;;0.90;;
16775;SDS011;8505;49.456;8.164;2023-10-09T07:15:10;0.45;;;0.43;;
16775;SDS011;8505;49.456;8.164;2023-10-09T07:17:56;2.20;;;0.90;;
16775;SDS011;8505;49.456;8.164;2023-10-09T07:20:44;1.38;;;0.65;;
16775;SDS011;8505;49.456;8.164;2023-10-09T07:23:25;2.22;;;0.45;;
16775;SDS011;8505;49.456;8.164;2023-10-09T07:26:04;2.17;;;1.00;;
16775;SDS011;8505;49.456;8.164;2023-10-09T07:28:49;2.90;;;0.85;;
16775;SDS011;8505;49.456;8.164;2023-10-09T07:31:27;10.07;;;1.35;;
16775;SDS011;8505;49.456;8.164;2023-10-09T07:33:56;0.52;;;0.40;;
16775;SDS011;8505;49.456;8.164;2023-10-09T07:36:24;2.15;;;1.00;;
16775;SDS011;8505;49.456;8.164;2023-10-09T07:39:04;3.53;;;0.90;;
16775;SDS011;8505;49.456;8.164;2023-10-09T07:41:44;12.32;;;1.40;;
16775;SDS011;8505;49.456;8.164;2023-10-09T07:44:23;0.15;;;0.15;;
16775;SDS011;8505;49.456;8.164;2023-10-09T07:47:09;1.30;;;0.80;;
16775;SDS011;8505;49.456;8.164;2023-10-09T07:50:12;0.30;;;0.30;;
16775;SDS011;8505;49.456;8.164;2023-10-09T07:52:47;11.67;;;3.77;;
16775;SDS011;8505;49.456;8.164;2023-10-09T07:55:16;14.50;;;4.40;;
16775;SDS011;8505;49.456;8.164;2023-10-09T07:57:57;13.82;;;3.88;;
16775;SDS011;8505;49.456;8.164;2023-10-09T08:00:37;11.00;;;4.28;;
16775;SDS011;8505;49.456;8.164;2023-10-09T08:03:25;11.98;;;4.00;;
16775;SDS011;8505;49.456;8.164;2023-10-09T08:05:59;15.23;;;4.13;;
16775;SDS011;8505;49.456;8.164;2023-10-09T08:08:33;14.63;;;4.15;;
16775;SDS011;8505;49.456;8.164;2023-10-09T08:11:28;13.48;;;3.95;;
16775;SDS011;8505;49.456;8.164;2023-10-09T08:14:26;10.65;;;3.72;;
16775;SDS011;8505;49.456;8.164;2023-10-09T08:17:17;14.32;;;4.03;;
16775;SDS011;8505;49.456;8.164;2023-10-09T08:19:48;12.63;;;3.47;;
16775;SDS011;8505;49.456;8.164;2023-10-09T08:22:26;15.75;;;3.70;;
16775;SDS011;8505;49.456;8.164;2023-10-09T08:25:18;16.37;;;4.07;;
16775;SDS011;8505;49.456;8.164;2023-10-09T08:27:58;11.75;;;4.00;;
16775;SDS011;8505;49.456;8.164;2023-10-09T08:30:42;13.38;;;4.18;;
16775;SDS011;8505;49.456;8.164;2023-10-09T08:33:16;23.17;;;4.80;;
16775;SDS011;8505;49.456;8.164;2023-10-09T08:36:22;11.25;;;4.03;;
16775;SDS011;8505;49.456;8.164;2023-10-09T08:38:54;12.77;;;4.13;;
16775;SDS011;8505;49.456;8.164;2023-10-09T08:41:24;13.82;;;4.22;;
16775;SDS011;8505;49.456;8.164;2023-10-09T08:43:56;20.08;;;4.97;;
16775;SDS011;8505;49.456;8.164;2023-10-09T08:46:27;11.18;;;4.18;;
16775;SDS011;8505;49.456;8.164;2023-10-09T08:48:56;9.23;;;3.60;;
16775;SDS011;8505;49.456;8.164;2023-10-09T08:51:25;9.38;;;3.92;;
16775;SDS011;8505;49.456;8.164;2023-10-09T08:53:54;8.57;;;3.77;;
16775;SDS011;8505;49.456;8.164;2023-10-09T08:56:22;12.88;;;4.25;;
16775;SDS011;8505;49.456;8.164;2023-10-09T08:58:51;11.77;;;4.23;;
16775;SDS011;8505;49.456;8.164;2023-10-09T09:01:20;12.48;;;4.00;;
16775;SDS011;8505;49.456;8.164;2023-10-09T09:03:53;13.48;;;4.47;;
16775;SDS011;8505;49.456;8.164;2023-10-09T09:06:23;10.75;;;3.95;;
16775;SDS011;8505;49.456;8.164;2023-10-09T09:08:51;11.45;;;4.10;;
16775;SDS011;8505;49.456;8.164;2023-10-09T09:11:21;14.52;;;4.72;;
16775;SDS011;8505;49.456;8.164;2023-10-09T09:13:59;12.90;;;4.50;;
16775;SDS011;8505;49.456;8.164;2023-10-09T09:16:32;11.52;;;4.05;;
16775;SDS011;8505;49.456;8.164;2023-10-09T09:19:03;13.47;;;4.57;;
16775;SDS011;8505;49.456;8.164;2023-10-09T09:21:48;13.47;;;4.23;;
16775;SDS011;8505;49.456;8.164;2023-10-09T09:24:21;16.73;;;4.50;;
16775;SDS011;8505;49.456;8.164;2023-10-09T09:27:00;12.48;;;4.20;;
16775;SDS011;8505;49.456;8.164;2023-10-09T09:29:47;13.18;;;4.30;;
16775;SDS011;8505;49.456;8.164;2023-10-09T09:32:26;12.70;;;3.95;;
16775;SDS011;8505;49.456;8.164;2023-10-09T09:34:57;14.27;;;4.17;;
16775;SDS011;8505;49.456;8.164;2023-10-09T09:37:28;13.20;;;4.03;;
16775;SDS011;8505;49.456;8.164;2023-10-09T09:40:00;12.98;;;4.03;;
16775;SDS011;8505;49.456;8.164;2023-10-09T09:42:41;14.27;;;4.53;;
16775;SDS011;8505;49.456;8.164;2023-10-09T09:45:13;15.63;;;4.75;;
16775;SDS011;8505;49.456;8.164;2023-10-09T09:47:43;13.32;;;4.10;;
16775;SDS011;8505;49.456;8.164;2023-10-09T09:50:20;10.60;;;3.72;;
16775;SDS011;8505;49.456;8.164;2023-10-09T09:52:51;14.43;;;4.22;;
16775;SDS011;8505;49.456;8.164;2023-10-09T09:55:24;12.95;;;4.20;;
16775;SDS011;8505;49.456;8.164;2023-10-09T09:57:57;16.13;;;4.38;;
16775;SDS011;8505;49.456;8.164;2023-10-09T10:00:27;14.18;;;4.63;;
16775;SDS011;8505;49.456;8.164;2023-10-09T10:03:11;12.13;;;4.13;;
16775;SDS011;8505;49.456;8.164;2023-10-09T10:05:43;14.60;;;4.60;;
16775;SDS011;8505;49.456;8.164;2023-10-09T10:08:15;13.88;;;4.50;;
16775;SDS011;8505;49.456;8.164;2023-10-09T10:10:46;11.55;;;4.00;;
16775;SDS011;8505;49.456;8.164;2023-10-09T10:16:24;14.50;;;4.53;;
16775;SDS011;8505;49.456;8.164;2023-10-09T10:19:01;13.25;;;4.43;;
16775;SDS011;8505;49.456;8.164;2023-10-09T10:21:48;12.77;;;4.03;;
16775;SDS011;8505;49.456;8.164;2023-10-09T10:27:21;10.18;;;4.30;;
16775;SDS011;8505;49.456;8.164;2023-10-09T10:33:03;11.67;;;4.37;;
16775;SDS011;8505;49.456;8.164;2023-10-09T10:35:38;12.50;;;4.50;;
16775;SDS011;8505;49.456;8.164;2023-10-09T10:38:23;13.02;;;4.38;;
16775;SDS011;8505;49.456;8.164;2023-10-09T10:41:09;10.45;;;4.40;;
16775;SDS011;8505;49.456;8.164;2023-10-09T10:43:40;12.10;;;4.22;;
16775;SDS011;8505;49.456;8.164;2023-10-09T10:46:31;11.17;;;4.20;;
16775;SDS011;8505;49.456;8.164;2023-10-09T10:49:05;12.27;;;4.30;;
16775;SDS011;8505;49.456;8.164;2023-10-09T10:51:47;9.82;;;4.60;;
16775;SDS011;8505;49.456;8.164;2023-10-09T10:54:22;9.75;;;4.20;;
16775;SDS011;8505;49.456;8.164;2023-10-09T10:57:15;11.30;;;4.28;;
16775;SDS011;8505;49.456;8.164;2023-10-09T11:00:00;9.63;;;4.28;;
16775;SDS011;8505;49.456;8.164;2023-10-09T11:03:00;13.50;;;4.40;;
16775;SDS011;8505;49.456;8.164;2023-10-09T11:05:41;11.25;;;4.50;;
16775;SDS011;8505;49.456;8.164;2023-10-09T11:08:10;12.52;;;4.25;;
16775;SDS011;8505;49.456;8.164;2023-10-09T11:10:39;12.30;;;4.13;;
16775;SDS011;8505;49.456;8.164;2023-10-09T11:13:22;10.98;;;3.95;;
16775;SDS011;8505;49.456;8.164;2023-10-09T11:15:59;11.65;;;4.40;;
16775;SDS011;8505;49.456;8.164;2023-10-09T11:18:50;11.95;;;4.65;;
16775;SDS011;8505;49.456;8.164;2023-10-09T11:21:17;10.40;;;4.22;;
16775;SDS011;8505;49.456;8.164;2023-10-09T11:23:57;10.88;;;4.00;;
16775;SDS011;8505;49.456;8.164;2023-10-09T11:26:47;11.03;;;4.40;;
16775;SDS011;8505;49.456;8.164;2023-10-09T11:29:21;15.50;;;4.40;;
16775;SDS011;8505;49.456;8.164;2023-10-09T11:32:17;16.25;;;4.70;;
16775;SDS011;8505;49.456;8.164;2023-10-09T11:34:45;11.00;;;4.22;;
16775;SDS011;8505;49.456;8.164;2023-10-09T11:37:19;13.73;;;4.75;;
16775;SDS011;8505;49.456;8.164;2023-10-09T11:40:05;11.48;;;4.60;;
16775;SDS011;8505;49.456;8.164;2023-10-09T11:42:51;12.05;;;4.40;;
16775;SDS011;8505;49.456;8.164;2023-10-09T11:45:23;11.35;;;4.72;;
16775;SDS011;8505;49.456;8.164;2023-10-09T11:47:55;10.32;;;4.22;;
16775;SDS011;8505;49.456;8.164;2023-10-09T11:50:39;19.38;;;5.45;;
16775;SDS011;8505;49.456;8.164;2023-10-09T11:53:17;12.27;;;4.67;;
16775;SDS011;8505;49.456;8.164;2023-10-09T11:56:00;12.18;;;4.63;;
16775;SDS011;8505;49.456;8.164;2023-10-09T11:58:29;12.43;;;5.07;;
16775;SDS011;8505;49.456;8.164;2023-10-09T12:00:58;12.43;;;5.07;;
16775;SDS011;8505;49.456;8.164;2023-10-09T12:03:30;11.27;;;4.80;;
16775;SDS011;8505;49.456;8.164;2023-10-09T12:06:00;11.50;;;4.57;;
16775;SDS011;8505;49.456;8.164;2023-10-09T12:08:35;9.67;;;4.50;;
16775;SDS011;8505;49.456;8.164;2023-10-09T12:11:06;11.33;;;4.60;;
16775;SDS011;8505;49.456;8.164;2023-10-09T12:13:37;13.17;;;4.63;;
16775;SDS011;8505;49.456;8.164;2023-10-09T12:16:05;12.75;;;4.60;;
16775;SDS011;8505;49.456;8.164;2023-10-09T12:18:36;10.02;;;4.13;;
16775;SDS011;8505;49.456;8.164;2023-10-09T12:21:06;9.93;;;4.47;;
16775;SDS011;8505;49.456;8.164;2023-10-09T12:23:42;10.48;;;4.40;;
16775;SDS011;8505;49.456;8.164;2023-10-09T12:26:13;12.02;;;4.45;;
16775;SDS011;8505;49.456;8.164;2023-10-09T12:28:43;11.82;;;4.60;;
16775;SDS011;8505;49.456;8.164;2023-10-09T12:31:13;8.65;;;4.30;;
16775;SDS011;8505;49.456;8.164;2023-10-09T12:33:41;12.63;;;4.50;;
16775;SDS011;8505;49.456;8.164;2023-10-09T12:36:11;11.32;;;4.70;;
16775;SDS011;8505;49.456;8.164;2023-10-09T12:38:44;11.93;;;4.60;;
16775;SDS011;8505;49.456;8.164;2023-10-09T12:41:17;11.10;;;4.55;;
16775;SDS011;8505;49.456;8.164;2023-10-09T12:43:48;11.20;;;4.77;;
16775;SDS011;8505;49.456;8.164;2023-10-09T12:46:16;9.50;;;4.40;;
16775;SDS011;8505;49.456;8.164;2023-10-09T12:48:44;12.13;;;4.72;;
16775;SDS011;8505;49.456;8.164;2023-10-09T12:51:13;10.23;;;4.70;;
16775;SDS011;8505;49.456;8.164;2023-10-09T12:53:43;10.55;;;4.80;;
16775;SDS011;8505;49.456;8.164;2023-10-09T12:56:12;10.20;;;4.50;;
16775;SDS011;8505;49.456;8.164;2023-10-09T12:58:40;10.90;;;5.05;;
16775;SDS011;8505;49.456;8.164;2023-10-09T13:01:20;10.25;;;4.50;;
16775;SDS011;8505;49.456;8.164;2023-10-09T13:03:48;11.00;;;4.47;;
16775;SDS011;8505;49.456;8.164;2023-10-09T13:06:17;12.13;;;4.78;;
16775;SDS011;8505;49.456;8.164;2023-10-09T13:08:50;11.05;;;5.10;;
16775;SDS011;8505;49.456;8.164;2023-10-09T13:11:18;9.77;;;4.75;;
16775;SDS011;8505;49.456;8.164;2023-10-09T13:13:46;10.40;;;4.93;;
16775;SDS011;8505;49.456;8.164;2023-10-09T13:16:17;10.85;;;5.03;;
16775;SDS011;8505;49.456;8.164;2023-10-09T13:18:51;10.20;;;4.63;;
16775;SDS011;8505;49.456;8.164;2023-10-09T13:21:20;12.65;;;5.03;;
16775;SDS011;8505;49.456;8.164;2023-10-09T13:23:49;9.77;;;4.55;;
16775;SDS011;8505;49.456;8.164;2023-10-09T13:26:18;10.60;;;4.88;;
16775;SDS011;8505;49.456;8.164;2023-10-09T13:28:58;13.23;;;5.18;;
16775;SDS011;8505;49.456;8.164;2023-10-09T13:31:28;10.20;;;4.80;;
16775;SDS011;8505;49.456;8.164;2023-10-09T13:34:00;11.15;;;4.82;;
16775;SDS011;8505;49.456;8.164;2023-10-09T13:36:33;10.32;;;5.13;;
16775;SDS011;8505;49.456;8.164;2023-10-09T13:39:02;9.23;;;5.18;;
16775;SDS011;8505;49.456;8.164;2023-10-09T13:41:58;13.13;;;5.03;;
16775;SDS011;8505;49.456;8.164;2023-10-09T13:44:29;9.43;;;4.88;;
16775;SDS011;8505;49.456;8.164;2023-10-09T13:46:58;10.82;;;5.20;;
16775;SDS011;8505;49.456;8.164;2023-10-09T13:49:29;12.33;;;5.27;;
16775;SDS011;8505;49.456;8.164;2023-10-09T13:51:57;9.90;;;5.10;;
16775;SDS011;8505;49.456;8.164;2023-10-09T13:54:26;12.02;;;5.18;;
16775;SDS011;8505;49.456;8.164;2023-10-09T13:57:07;10.48;;;5.00;;
16775;SDS011;8505;49.456;8.164;2023-10-09T13:59:37;11.30;;;4.70;;
16775;SDS011;8505;49.456;8.164;2023-10-09T14:02:15;9.87;;;4.60;;
16775;SDS011;8505;49.456;8.164;2023-10-09T14:04:48;10.25;;;4.82;;
16775;SDS011;8505;49.456;8.164;2023-10-09T14:07:16;10.13;;;4.88;;
16775;SDS011;8505;49.456;8.164;2023-10-09T14:09:44;10.73;;;4.87;;
16775;SDS011;8505;49.456;8.164;2023-10-09T14:12:23;12.10;;;4.70;;
16775;SDS011;8505;49.456;8.164;2023-10-09T14:14:56;11.63;;;5.20;;
16775;SDS011;8505;49.456;8.164;2023-10-09T14:17:23;9.60;;;4.70;;
16775;SDS011;8505;49.456;8.164;2023-10-09T14:19:52;14.20;;;4.78;;
16775;SDS011;8505;49.456;8.164;2023-10-09T14:22:22;5.60;;;1.77;;
16775;SDS011;8505;49.456;8.164;2023-10-09T14:24:51;3.08;;;1.50;;
16775;SDS011;8505;49.456;8.164;2023-10-09T14:27:23;4.47;;;1.23;;
16775;SDS011;8505;49.456;8.164;2023-10-09T14:29:55;4.90;;;1.87;;
16775;SDS011;8505;49.456;8.164;2023-10-09T14:32:26;4.55;;;1.33;;
16775;SDS011;8505;49.456;8.164;2023-10-09T14:35:00;3.17;;;1.58;;
16775;SDS011;8505;49.456;8.164;2023-10-09T14:37:29;6.05;;;1.85;;
16775;SDS011;8505;49.456;8.164;2023-10-09T14:39:57;7.47;;;1.95;;
16775;SDS011;8505;49.456;8.164;2023-10-09T14:42:27;7.50;;;2.67;;
16775;SDS011;8505;49.456;8.164;2023-10-09T14:44:55;10.40;;;1.10;;
16775;SDS011;8505;49.456;8.164;2023-10-09T14:47:23;2.63;;;1.05;;
16775;SDS011;8505;49.456;8.164;2023-10-09T14:49:52;0.73;;;0.53;;
16775;SDS011;8505;49.456;8.164;2023-10-09T14:52:22;0.28;;;0.22;;
16775;SDS011;8505;49.456;8.164;2023-10-09T14:54:50;1.27;;;1.08;;
16775;SDS011;8505;49.456;8.164;2023-10-09T14:57:18;3.35;;;1.45;;
16775;SDS011;8505;49.456;8.164;2023-10-09T14:59:47;1.48;;;0.47;;
16775;SDS011;8505;49.456;8.164;2023-10-09T15:02:15;1.60;;;0.75;;
16775;SDS011;8505;49.456;8.164;2023-10-09T15:04:44;12.30;;;5.00;;
16775;SDS011;8505;49.456;8.164;2023-10-09T15:07:12;11.50;;;5.13;;
16775;SDS011;8505;49.456;8.164;2023-10-09T15:10:01;1.70;;;1.20;;
16775;SDS011;8505;49.456;8.164;2023-10-09T15:12:32;1.92;;;1.23;;
16775;SDS011;8505;49.456;8.164;2023-10-09T15:15:07;1.30;;;1.00;;
16775;SDS011;8505;49.456;8.164;2023-10-09T15:17:39;4.05;;;1.73;;
16775;SDS011;8505;49.456;8.164;2023-10-09T15:20:11;2.22;;;1.17;;
16775;SDS011;8505;49.456;8.164;2023-10-09T15:22:40;3.45;;;1.10;;
16775;SDS011;8505;49.456;8.164;2023-10-09T15:25:09;6.05;;;3.95;;
16775;SDS011;8505;49.456;8.164;2023-10-09T15:27:41;4.30;;;1.92;;
16775;SDS011;8505;49.456;8.164;2023-10-09T15:30:10;5.67;;;2.63;;
16775;SDS011;8505;49.456;8.164;2023-10-09T15:32:41;4.47;;;1.77;;
16775;SDS011;8505;49.456;8.164;2023-10-09T15:35:09;5.95;;;2.88;;
16775;SDS011;8505;49.456;8.164;2023-10-09T15:37:40;6.05;;;2.63;;
16775;SDS011;8505;49.456;8.164;2023-10-09T15:40:09;4.95;;;1.88;;
16775;SDS011;8505;49.456;8.164;2023-10-09T15:42:41;3.37;;;1.87;;
16775;SDS011;8505;49.456;8.164;2023-10-09T15:45:17;3.97;;;2.17;;
16775;SDS011;8505;49.456;8.164;2023-10-09T15:47:47;2.90;;;1.17;;
16775;SDS011;8505;49.456;8.164;2023-10-09T15:50:18;4.65;;;1.30;;
16775;SDS011;8505;49.456;8.164;2023-10-09T15:52:46;7.53;;;1.70;;